sensor_id;sensor_type;location;lat;lon;timestamp;P1;durP1;ratioP1;P2;durP2;ratioP2
52057;SDS011;38063;53.210;6.504;2023-04-30T00:01:38;10.82;;;3.40;;
52057;SDS011;38063;53.210;6.504;2023-04-30T00:04:04;10.63;;;3.33;;
52057;SDS011;38063;53.210;6.504;2023-04-30T00:06:30;10.35;;;3.15;;
52057;SDS011;38063;53.210;6.504;2023-04-30T00:08:56;10.02;;;3.72;;
52057;SDS011;38063;53.210;6.504;2023-04-30T00:11:21;10.70;;;3.95;;
52057;SDS011;38063;53.210;6.504;2023-04-30T00:13:48;5.80;;;3.83;;
52057;SDS011;38063;53.210;6.504;2023-04-30T00:16:14;8.55;;;4.22;;
52057;SDS011;38063;53.210;6.504;2023-04-30T00:18:40;9.52;;;3.20;;
52057;SDS011;38063;53.210;6.504;2023-04-30T00:21:05;11.40;;;4.28;;
52057;SDS011;38063;53.210;6.504;2023-04-30T00:23:31;12.23;;;4.43;;
52057;SDS011;38063;53.210;6.504;2023-04-30T00:25:57;8.57;;;3.92;;
52057;SDS011;38063;53.210;6.504;2023-04-30T00:28:22;10.40;;;4.32;;
52057;SDS011;38063;53.210;6.504;2023-04-30T00:30:48;8.98;;;3.70;;
52057;SDS011;38063;53.210;6.504;2023-04-30T00:33:14;12.50;;;4.00;;
52057;SDS011;38063;53.210;6.504;2023-04-30T00:35:39;10.65;;;3.95;;
52057;SDS011;38063;53.210;6.504;2023-04-30T00:38:06;8.93;;;3.45;;
52057;SDS011;38063;53.210;6.504;2023-04-30T00:40:33;6.05;;;3.45;;
52057;SDS011;38063;53.210;6.504;2023-04-30T00:42:59;13.68;;;3.60;;
52057;SDS011;38063;53.210;6.504;2023-04-30T00:45:25;8.93;;;3.67;;
52057;SDS011;38063;53.210;6.504;2023-04-30T00:47:50;6.32;;;3.13;;
52057;SDS011;38063;53.210;6.504;2023-04-30T00:50:16;7.18;;;3.47;;
52057;SDS011;38063;53.210;6.504;2023-04-30T00:52:42;5.82;;;3.20;;
52057;SDS011;38063;53.210;6.504;2023-04-30T00:55:11;8.20;;;3.15;;
52057;SDS011;38063;53.210;6.504;2023-04-30T00:57:37;6.72;;;3.20;;
52057;SDS011;38063;53.210;6.504;2023-04-30T01:00:05;6.10;;;3.50;;
52057;SDS011;38063;53.210;6.504;2023-04-30T01:02:35;12.73;;;3.47;;
52057;SDS011;38063;53.210;6.504;2023-04-30T01:05:02;10.55;;;3.30;;
52057;SDS011;38063;53.210;6.504;2023-04-30T01:07:28;12.52;;;3.53;;
52057;SDS011;38063;53.210;6.504;2023-04-30T01:09:55;11.27;;;3.78;;
52057;SDS011;38063;53.210;6.504;2023-04-30T01:20:46;10.35;;;3.40;;
52057;SDS011;38063;53.210;6.504;2023-04-30T01:23:19;5.93;;;3.33;;
52057;SDS011;38063;53.210;6.504;2023-04-30T01:26:13;9.73;;;4.03;;
52057;SDS011;38063;53.210;6.504;2023-04-30T01:28:45;6.60;;;3.33;;
52057;SDS011;38063;53.210;6.504;2023-04-30T01:31:14;7.60;;;3.38;;
52057;SDS011;38063;53.210;6.504;2023-04-30T01:33:43;5.30;;;3.30;;
52057;SDS011;38063;53.210;6.504;2023-04-30T01:36:18;5.63;;;3.30;;
52057;SDS011;38063;53.210;6.504;2023-04-30T01:52:53;7.18;;;3.50;;
52057;SDS011;38063;53.210;6.504;2023-04-30T01:58:05;11.15;;;3.58;;
52057;SDS011;38063;53.210;6.504;2023-04-30T02:00:34;7.97;;;3.95;;
52057;SDS011;38063;53.210;6.504;2023-04-30T02:03:00;7.65;;;3.75;;
52057;SDS011;38063;53.210;6.504;2023-04-30T02:05:26;10.00;;;3.50;;
52057;SDS011;38063;53.210;6.504;2023-04-30T02:07:51;9.93;;;4.03;;
52057;SDS011;38063;53.210;6.504;2023-04-30T02:10:23;9.90;;;3.95;;
52057;SDS011;38063;53.210;6.504;2023-04-30T02:12:49;9.70;;;5.13;;
52057;SDS011;38063;53.210;6.504;2023-04-30T02:15:15;6.85;;;3.72;;
52057;SDS011;38063;53.210;6.504;2023-04-30T02:17:41;11.38;;;4.00;;
52057;SDS011;38063;53.210;6.504;2023-04-30T02:20:07;8.23;;;3.88;;
52057;SDS011;38063;53.210;6.504;2023-04-30T02:22:33;9.77;;;4.45;;
52057;SDS011;38063;53.210;6.504;2023-04-30T02:25:00;14.18;;;4.82;;
52057;SDS011;38063;53.210;6.504;2023-04-30T02:27:26;8.70;;;4.80;;
52057;SDS011;38063;53.210;6.504;2023-04-30T02:29:53;8.70;;;4.20;;
52057;SDS011;38063;53.210;6.504;2023-04-30T02:32:20;10.02;;;4.72;;
52057;SDS011;38063;53.210;6.504;2023-04-30T02:34:46;8.75;;;4.20;;
52057;SDS011;38063;53.210;6.504;2023-04-30T02:37:11;8.90;;;4.38;;
52057;SDS011;38063;53.210;6.504;2023-04-30T02:39:37;12.65;;;4.93;;
52057;SDS011;38063;53.210;6.504;2023-04-30T02:42:02;10.65;;;4.93;;
52057;SDS011;38063;53.210;6.504;2023-04-30T02:44:30;5.80;;;3.70;;
52057;SDS011;38063;53.210;6.504;2023-04-30T02:46:56;8.43;;;3.95;;
52057;SDS011;38063;53.210;6.504;2023-04-30T02:49:22;9.93;;;4.13;;
52057;SDS011;38063;53.210;6.504;2023-04-30T02:51:47;7.90;;;4.05;;
52057;SDS011;38063;53.210;6.504;2023-04-30T02:54:13;9.27;;;4.25;;
52057;SDS011;38063;53.210;6.504;2023-04-30T02:56:38;13.00;;;3.88;;
52057;SDS011;38063;53.210;6.504;2023-04-30T02:59:04;6.95;;;4.20;;
52057;SDS011;38063;53.210;6.504;2023-04-30T03:01:30;9.73;;;4.63;;
52057;SDS011;38063;53.210;6.504;2023-04-30T03:06:32;7.15;;;3.80;;
52057;SDS011;38063;53.210;6.504;2023-04-30T03:08:58;8.32;;;3.95;;
52057;SDS011;38063;53.210;6.504;2023-04-30T03:11:24;10.60;;;4.32;;
52057;SDS011;38063;53.210;6.504;2023-04-30T03:16:39;10.82;;;4.88;;
52057;SDS011;38063;53.210;6.504;2023-04-30T03:19:05;6.75;;;3.72;;
52057;SDS011;38063;53.210;6.504;2023-04-30T03:21:30;10.63;;;3.80;;
52057;SDS011;38063;53.210;6.504;2023-04-30T03:23:56;10.52;;;4.18;;
52057;SDS011;38063;53.210;6.504;2023-04-30T03:28:56;7.68;;;4.00;;
52057;SDS011;38063;53.210;6.504;2023-04-30T03:33:57;7.55;;;3.92;;
52057;SDS011;38063;53.210;6.504;2023-04-30T03:47:18;8.07;;;3.78;;
52057;SDS011;38063;53.210;6.504;2023-04-30T03:49:44;9.13;;;3.47;;
52057;SDS011;38063;53.210;6.504;2023-04-30T03:52:10;10.00;;;3.60;;
52057;SDS011;38063;53.210;6.504;2023-04-30T03:57:04;14.65;;;3.92;;
52057;SDS011;38063;53.210;6.504;2023-04-30T03:59:31;8.90;;;3.75;;
52057;SDS011;38063;53.210;6.504;2023-04-30T04:01:58;9.05;;;4.13;;
52057;SDS011;38063;53.210;6.504;2023-04-30T04:04:25;9.63;;;3.92;;
52057;SDS011;38063;53.210;6.504;2023-04-30T04:09:26;11.18;;;3.92;;
52057;SDS011;38063;53.210;6.504;2023-04-30T04:11:52;9.30;;;3.67;;
52057;SDS011;38063;53.210;6.504;2023-04-30T04:14:17;9.07;;;3.38;;
52057;SDS011;38063;53.210;6.504;2023-04-30T04:16:43;11.25;;;4.20;;
52057;SDS011;38063;53.210;6.504;2023-04-30T04:19:09;9.65;;;3.42;;
52057;SDS011;38063;53.210;6.504;2023-04-30T04:21:36;9.55;;;3.65;;
52057;SDS011;38063;53.210;6.504;2023-04-30T04:24:02;11.25;;;3.35;;
52057;SDS011;38063;53.210;6.504;2023-04-30T04:26:32;9.23;;;3.70;;
52057;SDS011;38063;53.210;6.504;2023-04-30T04:28:59;9.13;;;3.50;;
52057;SDS011;38063;53.210;6.504;2023-04-30T04:31:24;6.80;;;3.50;;
52057;SDS011;38063;53.210;6.504;2023-04-30T04:33:52;9.18;;;3.15;;
52057;SDS011;38063;53.210;6.504;2023-04-30T04:36:22;8.43;;;3.78;;
52057;SDS011;38063;53.210;6.504;2023-04-30T04:38:52;8.15;;;3.83;;
52057;SDS011;38063;53.210;6.504;2023-04-30T04:41:18;11.98;;;3.85;;
52057;SDS011;38063;53.210;6.504;2023-04-30T04:43:44;11.27;;;4.07;;
52057;SDS011;38063;53.210;6.504;2023-04-30T04:46:10;10.05;;;3.65;;
52057;SDS011;38063;53.210;6.504;2023-04-30T04:48:36;7.05;;;3.40;;
52057;SDS011;38063;53.210;6.504;2023-04-30T04:51:02;12.30;;;3.40;;
52057;SDS011;38063;53.210;6.504;2023-04-30T04:53:27;8.38;;;3.28;;
52057;SDS011;38063;53.210;6.504;2023-04-30T04:55:53;8.70;;;4.07;;
52057;SDS011;38063;53.210;6.504;2023-04-30T04:58:19;10.23;;;3.67;;
52057;SDS011;38063;53.210;6.504;2023-04-30T05:03:14;11.70;;;4.13;;
52057;SDS011;38063;53.210;6.504;2023-04-30T05:05:40;11.85;;;3.63;;
52057;SDS011;38063;53.210;6.504;2023-04-30T05:08:05;11.13;;;4.13;;
52057;SDS011;38063;53.210;6.504;2023-04-30T05:10:31;15.30;;;4.45;;
52057;SDS011;38063;53.210;6.504;2023-04-30T05:12:58;8.30;;;4.40;;
52057;SDS011;38063;53.210;6.504;2023-04-30T05:15:23;12.35;;;4.20;;
52057;SDS011;38063;53.210;6.504;2023-04-30T05:17:49;15.57;;;5.00;;
52057;SDS011;38063;53.210;6.504;2023-04-30T05:20:15;14.32;;;5.43;;
52057;SDS011;38063;53.210;6.504;2023-04-30T05:25:14;13.77;;;6.53;;
52057;SDS011;38063;53.210;6.504;2023-04-30T05:27:40;15.60;;;7.40;;
52057;SDS011;38063;53.210;6.504;2023-04-30T05:30:06;18.80;;;8.35;;
52057;SDS011;38063;53.210;6.504;2023-04-30T05:32:33;14.20;;;7.75;;
52057;SDS011;38063;53.210;6.504;2023-04-30T05:34:59;18.95;;;7.50;;
52057;SDS011;38063;53.210;6.504;2023-04-30T05:37:25;15.27;;;7.63;;
52057;SDS011;38063;53.210;6.504;2023-04-30T05:39:51;15.88;;;7.43;;
52057;SDS011;38063;53.210;6.504;2023-04-30T05:42:20;17.42;;;7.18;;
52057;SDS011;38063;53.210;6.504;2023-04-30T05:44:47;13.20;;;5.70;;
52057;SDS011;38063;53.210;6.504;2023-04-30T05:47:13;13.25;;;5.82;;
52057;SDS011;38063;53.210;6.504;2023-04-30T05:49:39;13.70;;;5.60;;
52057;SDS011;38063;53.210;6.504;2023-04-30T05:52:04;14.50;;;5.30;;
52057;SDS011;38063;53.210;6.504;2023-04-30T05:54:30;9.77;;;4.95;;
52057;SDS011;38063;53.210;6.504;2023-04-30T05:56:56;14.05;;;5.32;;
52057;SDS011;38063;53.210;6.504;2023-04-30T05:59:22;13.23;;;5.35;;
52057;SDS011;38063;53.210;6.504;2023-04-30T06:01:47;15.80;;;5.25;;
52057;SDS011;38063;53.210;6.504;2023-04-30T06:04:13;14.05;;;5.57;;
52057;SDS011;38063;53.210;6.504;2023-04-30T06:06:39;10.57;;;4.65;;
52057;SDS011;38063;53.210;6.504;2023-04-30T06:09:04;13.43;;;4.88;;
52057;SDS011;38063;53.210;6.504;2023-04-30T06:11:30;12.13;;;4.43;;
52057;SDS011;38063;53.210;6.504;2023-04-30T06:13:56;14.55;;;4.47;;
52057;SDS011;38063;53.210;6.504;2023-04-30T06:16:22;9.77;;;4.45;;
52057;SDS011;38063;53.210;6.504;2023-04-30T06:18:48;10.60;;;4.45;;
52057;SDS011;38063;53.210;6.504;2023-04-30T06:21:14;9.25;;;3.92;;
52057;SDS011;38063;53.210;6.504;2023-04-30T06:23:39;11.48;;;3.95;;
52057;SDS011;38063;53.210;6.504;2023-04-30T06:26:05;12.38;;;3.60;;
52057;SDS011;38063;53.210;6.504;2023-04-30T06:28:31;16.42;;;4.05;;
52057;SDS011;38063;53.210;6.504;2023-04-30T06:30:56;14.63;;;4.38;;
52057;SDS011;38063;53.210;6.504;2023-04-30T06:33:22;14.23;;;4.22;;
52057;SDS011;38063;53.210;6.504;2023-04-30T06:35:48;12.15;;;3.70;;
52057;SDS011;38063;53.210;6.504;2023-04-30T06:38:16;9.93;;;3.42;;
52057;SDS011;38063;53.210;6.504;2023-04-30T06:40:42;13.68;;;3.70;;
52057;SDS011;38063;53.210;6.504;2023-04-30T06:43:08;9.80;;;3.35;;
52057;SDS011;38063;53.210;6.504;2023-04-30T06:45:34;10.27;;;3.28;;
52057;SDS011;38063;53.210;6.504;2023-04-30T06:47:59;10.50;;;3.13;;
52057;SDS011;38063;53.210;6.504;2023-04-30T06:50:25;12.80;;;3.67;;
52057;SDS011;38063;53.210;6.504;2023-04-30T06:52:51;12.45;;;3.70;;
52057;SDS011;38063;53.210;6.504;2023-04-30T06:55:17;7.07;;;2.65;;
52057;SDS011;38063;53.210;6.504;2023-04-30T06:57:43;9.43;;;2.80;;
52057;SDS011;38063;53.210;6.504;2023-04-30T07:00:08;15.50;;;2.72;;
52057;SDS011;38063;53.210;6.504;2023-04-30T07:02:35;12.88;;;3.00;;
52057;SDS011;38063;53.210;6.504;2023-04-30T07:05:00;10.68;;;2.63;;
52057;SDS011;38063;53.210;6.504;2023-04-30T07:07:26;6.60;;;2.47;;
52057;SDS011;38063;53.210;6.504;2023-04-30T07:09:52;7.65;;;2.17;;
52057;SDS011;38063;53.210;6.504;2023-04-30T07:12:18;9.38;;;3.03;;
52057;SDS011;38063;53.210;6.504;2023-04-30T07:14:45;6.95;;;2.40;;
52057;SDS011;38063;53.210;6.504;2023-04-30T07:17:11;10.95;;;2.60;;
52057;SDS011;38063;53.210;6.504;2023-04-30T07:19:36;8.68;;;2.92;;
52057;SDS011;38063;53.210;6.504;2023-04-30T07:22:02;13.30;;;3.05;;
52057;SDS011;38063;53.210;6.504;2023-04-30T07:24:28;12.00;;;3.03;;
52057;SDS011;38063;53.210;6.504;2023-04-30T07:26:54;10.02;;;2.67;;
52057;SDS011;38063;53.210;6.504;2023-04-30T07:29:20;11.77;;;3.50;;
52057;SDS011;38063;53.210;6.504;2023-04-30T07:31:46;10.63;;;2.50;;
52057;SDS011;38063;53.210;6.504;2023-04-30T07:34:11;10.77;;;2.83;;
52057;SDS011;38063;53.210;6.504;2023-04-30T07:36:37;17.17;;;3.50;;
52057;SDS011;38063;53.210;6.504;2023-04-30T07:39:03;13.43;;;3.65;;
52057;SDS011;38063;53.210;6.504;2023-04-30T07:41:29;13.60;;;4.25;;
52057;SDS011;38063;53.210;6.504;2023-04-30T07:43:56;8.77;;;3.28;;
52057;SDS011;38063;53.210;6.504;2023-04-30T07:46:22;15.82;;;3.63;;
52057;SDS011;38063;53.210;6.504;2023-04-30T07:48:49;11.52;;;3.17;;
52057;SDS011;38063;53.210;6.504;2023-04-30T07:51:14;10.75;;;3.58;;
52057;SDS011;38063;53.210;6.504;2023-04-30T07:53:40;10.82;;;4.15;;
52057;SDS011;38063;53.210;6.504;2023-04-30T07:56:06;17.30;;;4.40;;
52057;SDS011;38063;53.210;6.504;2023-04-30T07:58:32;12.13;;;3.45;;
52057;SDS011;38063;53.210;6.504;2023-04-30T08:00:58;6.35;;;3.03;;
52057;SDS011;38063;53.210;6.504;2023-04-30T08:03:24;13.02;;;3.10;;
52057;SDS011;38063;53.210;6.504;2023-04-30T08:05:50;8.98;;;3.17;;
52057;SDS011;38063;53.210;6.504;2023-04-30T08:08:16;8.85;;;2.75;;
52057;SDS011;38063;53.210;6.504;2023-04-30T08:10:42;7.20;;;2.55;;
52057;SDS011;38063;53.210;6.504;2023-04-30T08:13:07;11.15;;;2.80;;
52057;SDS011;38063;53.210;6.504;2023-04-30T08:15:33;6.38;;;2.15;;
52057;SDS011;38063;53.210;6.504;2023-04-30T08:18:01;7.82;;;2.67;;
52057;SDS011;38063;53.210;6.504;2023-04-30T08:20:27;9.40;;;2.40;;
52057;SDS011;38063;53.210;6.504;2023-04-30T08:22:52;7.15;;;2.67;;
52057;SDS011;38063;53.210;6.504;2023-04-30T08:25:18;7.57;;;2.50;;
52057;SDS011;38063;53.210;6.504;2023-04-30T08:27:44;9.07;;;2.33;;
52057;SDS011;38063;53.210;6.504;2023-04-30T08:30:10;12.27;;;2.15;;
52057;SDS011;38063;53.210;6.504;2023-04-30T08:32:36;9.32;;;2.55;;
52057;SDS011;38063;53.210;6.504;2023-04-30T08:35:03;9.30;;;2.13;;
52057;SDS011;38063;53.210;6.504;2023-04-30T08:37:29;9.85;;;2.70;;
52057;SDS011;38063;53.210;6.504;2023-04-30T08:39:55;7.53;;;2.97;;
52057;SDS011;38063;53.210;6.504;2023-04-30T08:42:21;8.52;;;2.30;;
52057;SDS011;38063;53.210;6.504;2023-04-30T08:44:50;10.35;;;2.75;;
52057;SDS011;38063;53.210;6.504;2023-04-30T08:47:16;7.45;;;2.47;;
52057;SDS011;38063;53.210;6.504;2023-04-30T08:49:42;6.70;;;2.55;;
52057;SDS011;38063;53.210;6.504;2023-04-30T08:52:09;9.40;;;2.38;;
52057;SDS011;38063;53.210;6.504;2023-04-30T08:54:35;7.95;;;2.22;;
52057;SDS011;38063;53.210;6.504;2023-04-30T08:57:01;8.32;;;2.75;;
52057;SDS011;38063;53.210;6.504;2023-04-30T08:59:28;9.55;;;2.42;;
52057;SDS011;38063;53.210;6.504;2023-04-30T09:01:55;12.13;;;3.10;;
52057;SDS011;38063;53.210;6.504;2023-04-30T09:04:20;6.80;;;2.30;;
52057;SDS011;38063;53.210;6.504;2023-04-30T09:06:46;10.27;;;2.75;;
52057;SDS011;38063;53.210;6.504;2023-04-30T09:09:12;10.88;;;2.58;;
52057;SDS011;38063;53.210;6.504;2023-04-30T09:11:39;9.27;;;2.40;;
52057;SDS011;38063;53.210;6.504;2023-04-30T09:14:06;9.38;;;2.08;;
52057;SDS011;38063;53.210;6.504;2023-04-30T09:19:27;8.02;;;2.17;;
52057;SDS011;38063;53.210;6.504;2023-04-30T09:21:54;9.00;;;2.20;;
52057;SDS011;38063;53.210;6.504;2023-04-30T09:24:20;9.63;;;2.25;;
52057;SDS011;38063;53.210;6.504;2023-04-30T09:26:47;5.00;;;2.00;;
52057;SDS011;38063;53.210;6.504;2023-04-30T09:29:16;8.20;;;2.38;;
52057;SDS011;38063;53.210;6.504;2023-04-30T09:31:42;7.03;;;2.13;;
52057;SDS011;38063;53.210;6.504;2023-04-30T09:34:10;7.32;;;2.00;;
52057;SDS011;38063;53.210;6.504;2023-04-30T09:36:35;6.60;;;1.80;;
52057;SDS011;38063;53.210;6.504;2023-04-30T09:39:08;7.75;;;2.05;;
52057;SDS011;38063;53.210;6.504;2023-04-30T09:41:43;7.45;;;1.70;;
52057;SDS011;38063;53.210;6.504;2023-04-30T09:44:30;9.52;;;1.92;;
52057;SDS011;38063;53.210;6.504;2023-04-30T09:46:56;11.27;;;2.65;;
52057;SDS011;38063;53.210;6.504;2023-04-30T09:49:23;10.10;;;2.15;;
52057;SDS011;38063;53.210;6.504;2023-04-30T09:51:56;11.25;;;2.67;;
52057;SDS011;38063;53.210;6.504;2023-04-30T09:54:30;6.95;;;2.17;;
52057;SDS011;38063;53.210;6.504;2023-04-30T09:57:00;12.45;;;2.30;;
52057;SDS011;38063;53.210;6.504;2023-04-30T09:59:31;9.75;;;2.17;;
52057;SDS011;38063;53.210;6.504;2023-04-30T10:02:04;7.55;;;2.38;;
52057;SDS011;38063;53.210;6.504;2023-04-30T10:04:35;4.88;;;1.80;;
52057;SDS011;38063;53.210;6.504;2023-04-30T10:07:08;6.03;;;1.90;;
52057;SDS011;38063;53.210;6.504;2023-04-30T10:09:42;9.85;;;2.47;;
52057;SDS011;38063;53.210;6.504;2023-04-30T10:12:15;10.63;;;2.65;;
52057;SDS011;38063;53.210;6.504;2023-04-30T10:14:56;6.57;;;2.05;;
52057;SDS011;38063;53.210;6.504;2023-04-30T10:17:29;8.32;;;2.20;;
52057;SDS011;38063;53.210;6.504;2023-04-30T10:20:00;5.38;;;2.28;;
52057;SDS011;38063;53.210;6.504;2023-04-30T10:22:29;9.80;;;2.15;;
52057;SDS011;38063;53.210;6.504;2023-04-30T10:24:58;8.85;;;2.17;;
52057;SDS011;38063;53.210;6.504;2023-04-30T10:27:25;8.18;;;2.47;;
52057;SDS011;38063;53.210;6.504;2023-04-30T10:29:51;5.70;;;2.03;;
52057;SDS011;38063;53.210;6.504;2023-04-30T10:32:19;6.60;;;2.10;;
52057;SDS011;38063;53.210;6.504;2023-04-30T10:34:49;5.63;;;2.22;;
52057;SDS011;38063;53.210;6.504;2023-04-30T10:40:28;7.13;;;1.98;;
52057;SDS011;38063;53.210;6.504;2023-04-30T10:42:59;7.60;;;2.33;;
52057;SDS011;38063;53.210;6.504;2023-04-30T10:45:34;4.40;;;1.85;;
52057;SDS011;38063;53.210;6.504;2023-04-30T10:48:04;6.53;;;2.00;;
52057;SDS011;38063;53.210;6.504;2023-04-30T10:50:31;4.28;;;2.10;;
52057;SDS011;38063;53.210;6.504;2023-04-30T10:53:03;3.63;;;1.92;;
52057;SDS011;38063;53.210;6.504;2023-04-30T10:55:30;5.65;;;2.20;;
52057;SDS011;38063;53.210;6.504;2023-04-30T10:57:57;5.82;;;2.00;;
52057;SDS011;38063;53.210;6.504;2023-04-30T11:00:26;6.43;;;1.95;;
52057;SDS011;38063;53.210;6.504;2023-04-30T11:03:11;6.97;;;2.00;;
52057;SDS011;38063;53.210;6.504;2023-04-30T11:05:37;7.95;;;2.20;;
52057;SDS011;38063;53.210;6.504;2023-04-30T11:08:03;6.22;;;2.10;;
52057;SDS011;38063;53.210;6.504;2023-04-30T11:10:33;2.97;;;1.83;;
52057;SDS011;38063;53.210;6.504;2023-04-30T11:13:02;7.68;;;2.00;;
52057;SDS011;38063;53.210;6.504;2023-04-30T11:16:02;7.13;;;2.45;;
52057;SDS011;38063;53.210;6.504;2023-04-30T11:18:26;9.02;;;2.40;;
52057;SDS011;38063;53.210;6.504;2023-04-30T11:20:52;6.70;;;2.20;;
52057;SDS011;38063;53.210;6.504;2023-04-30T11:23:21;8.00;;;2.67;;
52057;SDS011;38063;53.210;6.504;2023-04-30T11:25:48;6.78;;;1.98;;
52057;SDS011;38063;53.210;6.504;2023-04-30T11:28:22;7.28;;;2.10;;
52057;SDS011;38063;53.210;6.504;2023-04-30T11:30:49;10.20;;;2.42;;
52057;SDS011;38063;53.210;6.504;2023-04-30T11:33:20;7.57;;;2.50;;
52057;SDS011;38063;53.210;6.504;2023-04-30T11:35:47;7.03;;;3.88;;
52057;SDS011;38063;53.210;6.504;2023-04-30T11:38:20;8.48;;;2.58;;
52057;SDS011;38063;53.210;6.504;2023-04-30T11:40:50;6.53;;;2.35;;
52057;SDS011;38063;53.210;6.504;2023-04-30T11:43:23;3.88;;;2.10;;
52057;SDS011;38063;53.210;6.504;2023-04-30T11:48:36;5.53;;;1.98;;
52057;SDS011;38063;53.210;6.504;2023-04-30T11:51:04;5.22;;;1.88;;
52057;SDS011;38063;53.210;6.504;2023-04-30T11:53:38;5.60;;;1.60;;
52057;SDS011;38063;53.210;6.504;2023-04-30T11:56:04;4.10;;;1.90;;
52057;SDS011;38063;53.210;6.504;2023-04-30T11:58:33;2.63;;;1.30;;
52057;SDS011;38063;53.210;6.504;2023-04-30T12:01:02;5.20;;;1.60;;
52057;SDS011;38063;53.210;6.504;2023-04-30T12:03:28;6.65;;;1.90;;
52057;SDS011;38063;53.210;6.504;2023-04-30T12:05:55;6.95;;;2.30;;
52057;SDS011;38063;53.210;6.504;2023-04-30T12:08:22;5.55;;;1.95;;
52057;SDS011;38063;53.210;6.504;2023-04-30T12:10:48;4.68;;;1.98;;
52057;SDS011;38063;53.210;6.504;2023-04-30T12:13:14;5.75;;;1.75;;
52057;SDS011;38063;53.210;6.504;2023-04-30T12:15:42;3.90;;;1.60;;
52057;SDS011;38063;53.210;6.504;2023-04-30T12:18:23;4.50;;;1.80;;
52057;SDS011;38063;53.210;6.504;2023-04-30T12:20:48;5.75;;;2.15;;
52057;SDS011;38063;53.210;6.504;2023-04-30T12:23:15;3.53;;;1.60;;
52057;SDS011;38063;53.210;6.504;2023-04-30T12:25:40;3.05;;;1.50;;
52057;SDS011;38063;53.210;6.504;2023-04-30T12:28:09;3.92;;;1.85;;
52057;SDS011;38063;53.210;6.504;2023-04-30T12:30:36;6.35;;;1.88;;
52057;SDS011;38063;53.210;6.504;2023-04-30T12:33:01;3.38;;;1.65;;
52057;SDS011;38063;53.210;6.504;2023-04-30T12:35:29;13.32;;;3.05;;
52057;SDS011;38063;53.210;6.504;2023-04-30T12:38:05;21.65;;;3.35;;
52057;SDS011;38063;53.210;6.504;2023-04-30T12:40:32;16.10;;;2.92;;
52057;SDS011;38063;53.210;6.504;2023-04-30T12:43:07;8.88;;;2.55;;
52057;SDS011;38063;53.210;6.504;2023-04-30T12:48:10;3.53;;;1.80;;
52057;SDS011;38063;53.210;6.504;2023-04-30T12:50:37;12.13;;;3.38;;
52057;SDS011;38063;53.210;6.504;2023-04-30T12:53:03;5.35;;;2.20;;
52057;SDS011;38063;53.210;6.504;2023-04-30T12:55:30;6.97;;;2.67;;
52057;SDS011;38063;53.210;6.504;2023-04-30T13:00:51;5.80;;;2.50;;
52057;SDS011;38063;53.210;6.504;2023-04-30T13:03:19;4.03;;;2.13;;
52057;SDS011;38063;53.210;6.504;2023-04-30T13:05:54;7.57;;;2.22;;
52057;SDS011;38063;53.210;6.504;2023-04-30T13:08:19;5.55;;;2.17;;
52057;SDS011;38063;53.210;6.504;2023-04-30T13:10:46;5.60;;;1.98;;
52057;SDS011;38063;53.210;6.504;2023-04-30T13:13:13;5.80;;;2.30;;
52057;SDS011;38063;53.210;6.504;2023-04-30T13:15:39;4.05;;;1.63;;
52057;SDS011;38063;53.210;6.504;2023-04-30T13:18:06;6.53;;;3.05;;
52057;SDS011;38063;53.210;6.504;2023-04-30T13:20:36;4.85;;;1.98;;
52057;SDS011;38063;53.210;6.504;2023-04-30T13:23:02;3.30;;;1.83;;
52057;SDS011;38063;53.210;6.504;2023-04-30T13:25:31;3.63;;;1.90;;
52057;SDS011;38063;53.210;6.504;2023-04-30T13:27:58;5.68;;;2.30;;
52057;SDS011;38063;53.210;6.504;2023-04-30T13:30:24;5.78;;;2.30;;
52057;SDS011;38063;53.210;6.504;2023-04-30T13:32:50;7.00;;;2.30;;
52057;SDS011;38063;53.210;6.504;2023-04-30T13:35:16;3.20;;;2.10;;
52057;SDS011;38063;53.210;6.504;2023-04-30T13:37:43;4.80;;;1.67;;
52057;SDS011;38063;53.210;6.504;2023-04-30T13:40:09;4.95;;;2.03;;
52057;SDS011;38063;53.210;6.504;2023-04-30T13:42:35;4.03;;;1.90;;
52057;SDS011;38063;53.210;6.504;2023-04-30T13:45:03;2.75;;;1.60;;
52057;SDS011;38063;53.210;6.504;2023-04-30T13:47:32;2.67;;;1.40;;
52057;SDS011;38063;53.210;6.504;2023-04-30T13:49:58;2.95;;;1.80;;
52057;SDS011;38063;53.210;6.504;2023-04-30T13:52:24;3.80;;;1.95;;
52057;SDS011;38063;53.210;6.504;2023-04-30T13:54:50;4.22;;;2.33;;
52057;SDS011;38063;53.210;6.504;2023-04-30T13:57:16;4.32;;;2.08;;
52057;SDS011;38063;53.210;6.504;2023-04-30T13:59:42;4.50;;;2.28;;
52057;SDS011;38063;53.210;6.504;2023-04-30T14:02:08;4.68;;;2.00;;
52057;SDS011;38063;53.210;6.504;2023-04-30T14:04:34;3.83;;;2.03;;
52057;SDS011;38063;53.210;6.504;2023-04-30T14:07:02;6.78;;;1.70;;
52057;SDS011;38063;53.210;6.504;2023-04-30T14:09:28;6.32;;;2.10;;
52057;SDS011;38063;53.210;6.504;2023-04-30T14:11:54;3.75;;;1.65;;
52057;SDS011;38063;53.210;6.504;2023-04-30T14:14:23;3.58;;;2.22;;
52057;SDS011;38063;53.210;6.504;2023-04-30T14:16:50;4.47;;;2.10;;
52057;SDS011;38063;53.210;6.504;2023-04-30T14:19:16;4.38;;;1.80;;
52057;SDS011;38063;53.210;6.504;2023-04-30T14:21:42;3.85;;;2.00;;
52057;SDS011;38063;53.210;6.504;2023-04-30T14:24:08;5.57;;;1.73;;
52057;SDS011;38063;53.210;6.504;2023-04-30T14:26:36;2.88;;;1.55;;
52057;SDS011;38063;53.210;6.504;2023-04-30T14:29:03;3.03;;;1.35;;
52057;SDS011;38063;53.210;6.504;2023-04-30T14:31:28;4.43;;;2.00;;
52057;SDS011;38063;53.210;6.504;2023-04-30T14:33:54;3.15;;;1.85;;
52057;SDS011;38063;53.210;6.504;2023-04-30T14:36:20;4.47;;;1.83;;
52057;SDS011;38063;53.210;6.504;2023-04-30T14:38:45;4.70;;;1.85;;
52057;SDS011;38063;53.210;6.504;2023-04-30T14:41:11;4.07;;;1.88;;
52057;SDS011;38063;53.210;6.504;2023-04-30T14:43:37;3.80;;;1.90;;
52057;SDS011;38063;53.210;6.504;2023-04-30T14:46:02;4.22;;;1.60;;
52057;SDS011;38063;53.210;6.504;2023-04-30T14:48:28;4.38;;;1.58;;
52057;SDS011;38063;53.210;6.504;2023-04-30T14:50:54;3.35;;;1.33;;
52057;SDS011;38063;53.210;6.504;2023-04-30T14:53:20;2.17;;;1.20;;
52057;SDS011;38063;53.210;6.504;2023-04-30T14:55:45;3.75;;;1.40;;
52057;SDS011;38063;53.210;6.504;2023-04-30T14:58:11;2.85;;;1.33;;
52057;SDS011;38063;53.210;6.504;2023-04-30T15:00:36;2.53;;;1.85;;
52057;SDS011;38063;53.210;6.504;2023-04-30T15:03:02;3.40;;;1.85;;
52057;SDS011;38063;53.210;6.504;2023-04-30T15:05:28;2.85;;;1.48;;
52057;SDS011;38063;53.210;6.504;2023-04-30T15:07:54;4.68;;;1.67;;
52057;SDS011;38063;53.210;6.504;2023-04-30T15:10:19;4.38;;;1.50;;
52057;SDS011;38063;53.210;6.504;2023-04-30T15:12:45;3.22;;;1.52;;
52057;SDS011;38063;53.210;6.504;2023-04-30T15:15:10;4.13;;;1.60;;
52057;SDS011;38063;53.210;6.504;2023-04-30T15:17:36;3.80;;;1.60;;
52057;SDS011;38063;53.210;6.504;2023-04-30T15:20:03;4.22;;;1.63;;
52057;SDS011;38063;53.210;6.504;2023-04-30T15:22:30;4.55;;;1.42;;
52057;SDS011;38063;53.210;6.504;2023-04-30T15:24:57;6.13;;;1.85;;
52057;SDS011;38063;53.210;6.504;2023-04-30T15:27:23;2.65;;;1.55;;
52057;SDS011;38063;53.210;6.504;2023-04-30T15:29:51;6.07;;;1.40;;
52057;SDS011;38063;53.210;6.504;2023-04-30T15:32:17;5.45;;;1.80;;
52057;SDS011;38063;53.210;6.504;2023-04-30T15:34:43;3.55;;;1.60;;
52057;SDS011;38063;53.210;6.504;2023-04-30T15:37:09;4.03;;;1.55;;
52057;SDS011;38063;53.210;6.504;2023-04-30T15:39:35;2.88;;;1.40;;
52057;SDS011;38063;53.210;6.504;2023-04-30T15:42:01;3.33;;;1.30;;
52057;SDS011;38063;53.210;6.504;2023-04-30T15:44:27;3.30;;;1.50;;
52057;SDS011;38063;53.210;6.504;2023-04-30T15:46:53;4.15;;;1.38;;
52057;SDS011;38063;53.210;6.504;2023-04-30T15:49:19;4.53;;;1.73;;
52057;SDS011;38063;53.210;6.504;2023-04-30T15:51:47;5.35;;;1.80;;
52057;SDS011;38063;53.210;6.504;2023-04-30T15:54:13;4.75;;;1.50;;